Time;durP1;ratioP1;P1;durP2;ratioP2;P2;SDS_P1;SDS_P2;PMS_P1;PMS_P2;Temp;Humidity;BMP_temperature;BMP_pressure;BME280_temperature;BME280_humidity;BME280_pressure;Samples;Min_cycle;Max_cycle;Signal;HPM_P1;HPM_P2
2023/07/07 00:00:23;;;;;;;11.17;4.83;;;17.20;99.90;;;;;;4979240;28;20303;-59
2023/07/07 00:02:50;;;;;;;6.53;5.03;;;17.20;99.90;;;;;;4978859;28;20202;-59
2023/07/07 00:05:19;;;;;;;6.30;5.03;;;17.10;99.90;;;;;;4982227;28;20760;-59
2023/07/07 00:07:48;;;;;;;6.17;4.70;;;17.10;99.90;;;;;;4979547;28;20560;-59
2023/07/07 00:10:16;;;;;;;7.27;5.30;;;17.10;99.90;;;;;;4981084;28;20668;-59
2023/07/07 00:12:44;;;;;;;9.63;5.13;;;17.10;99.90;;;;;;4975420;28;20616;-59
2023/07/07 00:15:12;;;;;;;8.13;5.73;;;17.00;99.90;;;;;;4975920;28;20270;-59
2023/07/07 00:17:41;;;;;;;7.80;5.13;;;17.00;99.90;;;;;;4980450;28;20548;-59
2023/07/07 00:20:11;;;;;;;6.23;4.70;;;17.00;99.90;;;;;;4980002;28;20215;-59
2023/07/07 00:22:38;;;;;;;6.43;4.97;;;17.00;99.90;;;;;;4977846;28;20211;-59
2023/07/07 00:25:06;;;;;;;7.87;5.03;;;16.90;99.90;;;;;;4978047;28;20606;-59
2023/07/07 00:27:34;;;;;;;7.00;4.47;;;16.90;99.90;;;;;;4979755;28;20218;-59
2023/07/07 00:30:02;;;;;;;6.80;4.87;;;16.90;99.90;;;;;;4977521;28;20676;-59
2023/07/07 00:32:30;;;;;;;8.50;5.50;;;16.90;99.90;;;;;;4980728;28;20216;-59
2023/07/07 00:34:57;;;;;;;7.43;5.07;;;16.80;99.90;;;;;;4979466;28;20270;-59
2023/07/07 00:37:24;;;;;;;6.70;5.20;;;16.80;99.90;;;;;;4978681;28;20199;-59
2023/07/07 00:39:51;;;;;;;8.20;5.13;;;16.80;99.90;;;;;;4980553;28;20636;-59
2023/07/07 00:42:18;;;;;;;6.47;5.10;;;16.70;99.90;;;;;;4979710;28;20287;-59
2023/07/07 00:45:13;;;;;;;6.93;5.03;;;16.70;99.90;;;;;;4979339;28;20616;-60
2023/07/07 00:47:51;;;;;;;7.57;5.40;;;16.70;99.90;;;;;;4972266;28;20770;-61
2023/07/07 00:50:21;;;;;;;6.03;4.50;;;16.70;99.90;;;;;;4978394;28;20208;-59
2023/07/07 00:52:48;;;;;;;5.73;4.50;;;16.70;99.90;;;;;;4977704;28;20248;-58
2023/07/07 00:55:38;;;;;;;6.30;4.87;;;16.70;99.90;;;;;;4977486;28;20206;-58
2023/07/07 00:58:10;;;;;;;8.93;5.70;;;16.70;99.90;;;;;;4980768;28;20210;-57
2023/07/07 01:00:39;;;;;;;7.17;5.77;;;16.60;99.90;;;;;;4979631;28;20199;-59
2023/07/07 01:03:41;;;;;;;6.73;5.73;;;16.50;99.90;;;;;;4990961;23;20194;-57
2023/07/07 01:06:12;;;;;;;7.60;4.83;;;16.50;99.90;;;;;;4978265;28;20225;-59
2023/07/07 01:08:42;;;;;;;8.50;5.50;;;16.40;99.90;;;;;;4994603;28;20295;-59
2023/07/07 01:11:12;;;;;;;5.77;5.13;;;16.30;99.90;;;;;;4980159;28;20259;-59
2023/07/07 01:13:49;;;;;;;6.50;5.00;;;16.40;99.90;;;;;;4983814;28;20209;-59
2023/07/07 01:16:28;;;;;;;6.50;5.33;;;16.40;99.90;;;;;;4985398;28;20261;-60
2023/07/07 01:19:15;;;;;;;7.87;5.10;;;16.30;99.90;;;;;;4982021;28;20461;-59
2023/07/07 01:22:10;;;;;;;6.67;5.13;;;16.30;99.90;;;;;;4982133;28;20220;-59
2023/07/07 01:24:56;;;;;;;7.47;5.23;;;16.30;99.90;;;;;;4984007;28;20266;-61
2023/07/07 01:27:53;;;;;;;8.17;5.03;;;16.30;99.90;;;;;;4991731;28;20564;-60
2023/07/07 01:30:45;;;;;;;7.57;4.93;;;16.30;99.90;;;;;;4985737;28;20224;-60
2023/07/07 01:33:20;;;;;;;5.73;4.73;;;16.30;99.90;;;;;;4974722;28;20294;-59
2023/07/07 01:35:53;;;;;;;7.23;5.30;;;16.30;99.90;;;;;;4975945;28;20213;-59
2023/07/07 01:38:41;;;;;;;7.53;5.43;;;16.30;99.90;;;;;;4977875;28;20214;-59
2023/07/07 01:41:11;;;;;;;8.47;5.53;;;16.20;99.90;;;;;;4994155;28;20736;-61
2023/07/07 01:44:07;;;;;;;8.53;5.13;;;16.20;99.90;;;;;;4982973;28;20227;-60
2023/07/07 01:46:49;;;;;;;6.30;4.80;;;16.10;99.90;;;;;;4962252;28;20203;-60
2023/07/07 01:49:57;;;;;;;8.23;5.63;;;16.10;99.90;;;;;;4997394;28;20261;-59
2023/07/07 01:52:39;;;;;;;6.50;5.13;;;16.10;99.90;;;;;;4949811;29;20244;-59
2023/07/07 01:55:21;;;;;;;8.47;5.50;;;16.10;99.90;;;;;;4977546;28;20210;-61
2023/07/07 01:57:59;;;;;;;8.73;4.40;;;16.00;99.90;;;;;;4989171;28;20258;-58
2023/07/07 02:00:28;;;;;;;6.27;5.23;;;16.00;99.90;;;;;;4982636;28;21325;-57
2023/07/07 02:02:58;;;;;;;6.43;4.90;;;16.00;99.90;;;;;;4996652;28;20462;-57
2023/07/07 02:05:28;;;;;;;7.47;5.13;;;16.00;99.90;;;;;;4985400;28;20637;-57
2023/07/07 02:08:00;;;;;;;8.37;4.47;;;16.00;99.90;;;;;;4982611;28;20210;-58
2023/07/07 02:10:34;;;;;;;9.00;5.30;;;16.00;99.90;;;;;;4976355;28;20211;-57
2023/07/07 02:13:02;;;;;;;6.93;4.93;;;16.00;99.90;;;;;;4977611;28;20258;-58
2023/07/07 02:15:29;;;;;;;6.37;5.20;;;16.00;99.90;;;;;;4979878;28;20246;-59
2023/07/07 02:17:58;;;;;;;9.13;6.17;;;16.00;99.90;;;;;;4979508;28;20298;-59
2023/07/07 02:20:26;;;;;;;6.70;4.97;;;15.90;99.90;;;;;;4981202;28;20222;-61
2023/07/07 02:22:56;;;;;;;9.00;5.30;;;15.90;99.90;;;;;;4980172;28;20286;-60
2023/07/07 02:25:23;;;;;;;6.17;5.07;;;15.90;99.90;;;;;;4996941;28;20254;-59
2023/07/07 02:27:50;;;;;;;4.73;4.33;;;15.80;99.90;;;;;;4982748;28;20251;-58
2023/07/07 02:30:20;;;;;;;8.50;5.17;;;15.80;99.90;;;;;;4972201;28;20212;-61
2023/07/07 02:32:47;;;;;;;9.87;5.40;;;15.80;99.90;;;;;;4975978;28;20230;-61
2023/07/07 02:35:18;;;;;;;7.63;5.10;;;15.80;99.90;;;;;;4978544;28;20214;-60
2023/07/07 02:37:45;;;;;;;6.03;4.93;;;15.80;99.90;;;;;;4992322;28;20195;-58
2023/07/07 02:40:12;;;;;;;5.77;5.17;;;15.80;99.90;;;;;;4978851;28;20198;-58
2023/07/07 02:42:41;;;;;;;8.50;5.07;;;15.80;99.90;;;;;;4980429;28;20541;-61
2023/07/07 02:45:08;;;;;;;7.67;4.87;;;15.80;99.90;;;;;;4976992;28;20216;-60
2023/07/07 02:47:39;;;;;;;6.50;5.30;;;15.90;99.90;;;;;;4975746;28;20661;-62
2023/07/07 02:50:06;;;;;;;5.50;4.97;;;15.90;99.90;;;;;;4993596;28;20256;-60
2023/07/07 02:52:37;;;;;;;8.80;5.07;;;15.90;99.90;;;;;;4976412;28;21962;-59
2023/07/07 02:55:04;;;;;;;7.00;5.17;;;16.00;99.90;;;;;;4991352;28;20212;-61
2023/07/07 02:57:32;;;;;;;6.87;4.83;;;16.00;99.90;;;;;;4974636;28;21561;-59
2023/07/07 03:00:09;;;;;;;6.90;4.77;;;15.90;99.90;;;;;;4978612;28;20531;-59
2023/07/07 03:02:36;;;;;;;8.47;4.50;;;15.90;99.90;;;;;;4984267;28;20218;-60
2023/07/07 03:05:07;;;;;;;5.70;4.77;;;15.80;99.90;;;;;;4979237;28;20237;-61
2023/07/07 03:07:33;;;;;;;6.90;4.70;;;15.80;99.90;;;;;;4976629;28;20268;-58
2023/07/07 03:10:01;;;;;;;6.77;4.97;;;15.80;99.90;;;;;;4969319;28;20550;-58
2023/07/07 03:12:28;;;;;;;6.23;4.20;;;15.80;99.90;;;;;;4973560;28;20601;-58
2023/07/07 03:15:01;;;;;;;6.87;5.33;;;15.80;99.90;;;;;;4971938;28;20202;-57
2023/07/07 03:17:31;;;;;;;5.50;4.77;;;15.70;99.90;;;;;;4966992;28;20210;-59
2023/07/07 03:19:58;;;;;;;5.83;4.53;;;15.70;99.90;;;;;;4966837;28;20237;-61
2023/07/07 03:22:29;;;;;;;6.60;4.97;;;15.80;99.90;;;;;;4975977;28;20615;-60
2023/07/07 03:24:56;;;;;;;9.70;4.87;;;15.90;99.90;;;;;;4967859;28;20213;-61
2023/07/07 03:27:24;;;;;;;5.73;4.43;;;15.90;99.90;;;;;;4967308;28;20678;-61
2023/07/07 03:29:51;;;;;;;8.17;4.57;;;15.90;99.90;;;;;;4969371;28;20570;-61
2023/07/07 03:32:18;;;;;;;6.10;4.50;;;15.90;99.90;;;;;;4968030;28;20240;-61
2023/07/07 03:34:47;;;;;;;7.83;5.00;;;15.90;99.90;;;;;;4971765;28;20242;-60
2023/07/07 03:37:19;;;;;;;4.93;4.43;;;15.80;99.90;;;;;;4972857;28;20281;-60
2023/07/07 03:39:52;;;;;;;5.07;3.93;;;15.70;99.90;;;;;;4984166;28;20268;-61
2023/07/07 03:42:19;;;;;;;5.97;4.40;;;15.70;99.90;;;;;;4968402;28;20301;-59
2023/07/07 03:44:46;;;;;;;5.10;4.40;;;15.80;99.90;;;;;;4962398;28;20213;-62
2023/07/07 03:47:19;;;;;;;5.73;4.40;;;15.90;99.90;;;;;;4966871;28;20648;-60
2023/07/07 03:49:56;;;;;;;6.53;4.70;;;15.90;99.90;;;;;;4972399;28;20216;-60
2023/07/07 03:52:23;;;;;;;6.90;4.70;;;16.00;99.90;;;;;;4981785;28;20701;-62
2023/07/07 03:54:56;;;;;;;11.10;6.53;;;15.90;99.90;;;;;;4971528;28;20269;-60
2023/07/07 03:57:23;;;;;;;6.33;4.10;;;15.90;99.90;;;;;;4970469;28;20213;-61
2023/07/07 03:59:51;;;;;;;5.53;4.70;;;15.90;99.90;;;;;;4973688;28;20683;-60
2023/07/07 04:02:31;;;;;;;6.43;4.00;;;15.80;99.90;;;;;;4967170;28;20241;-60
2023/07/07 04:05:03;;;;;;;5.43;4.13;;;15.80;99.90;;;;;;4963052;28;20254;-61
2023/07/07 04:07:30;;;;;;;7.07;4.80;;;15.70;99.90;;;;;;4969949;28;20210;-59
2023/07/07 04:09:57;;;;;;;6.20;4.33;;;15.70;99.90;;;;;;4971164;28;20733;-61
2023/07/07 04:12:27;;;;;;;7.57;4.37;;;15.80;99.90;;;;;;4986088;28;20221;-61
2023/07/07 04:15:01;;;;;;;7.67;4.13;;;15.80;99.90;;;;;;4970417;28;20685;-59
2023/07/07 04:17:31;;;;;;;8.07;4.83;;;15.80;99.90;;;;;;4963360;28;20237;-60
2023/07/07 04:19:58;;;;;;;4.60;4.07;;;15.90;99.90;;;;;;4967653;28;20301;-59
2023/07/07 04:22:25;;;;;;;7.93;4.70;;;15.90;99.90;;;;;;4969481;28;20213;-61
2023/07/07 04:25:19;;;;;;;7.90;5.10;;;15.90;99.90;;;;;;4962438;28;21609;-61
2023/07/07 04:27:49;;;;;;;8.20;4.87;;;16.00;99.90;;;;;;4971897;28;20202;-61
2023/07/07 04:30:16;;;;;;;5.43;4.20;;;16.00;99.90;;;;;;4968618;28;20319;-61
2023/07/07 04:32:43;;;;;;;5.30;4.10;;;16.10;99.90;;;;;;4969292;28;20213;-60
2023/07/07 04:35:14;;;;;;;7.37;4.63;;;16.10;99.90;;;;;;4972949;28;20293;-61
2023/07/07 04:37:41;;;;;;;5.23;4.27;;;16.20;99.90;;;;;;4967837;28;20230;-60
2023/07/07 04:40:09;;;;;;;8.17;4.87;;;16.10;99.90;;;;;;4966326;28;20209;-61
2023/07/07 04:42:36;;;;;;;7.90;4.67;;;16.20;99.90;;;;;;4986794;28;20210;-61
2023/07/07 04:45:04;;;;;;;6.33;4.73;;;16.30;99.90;;;;;;4969709;28;20316;-60
2023/07/07 04:47:31;;;;;;;5.70;4.63;;;16.30;99.90;;;;;;4962784;28;20373;-60
2023/07/07 04:49:58;;;;;;;10.30;4.67;;;16.40;99.90;;;;;;4985965;28;20241;-61
2023/07/07 04:52:26;;;;;;;5.17;4.43;;;16.40;99.90;;;;;;4962427;28;20221;-60
2023/07/07 04:54:53;;;;;;;6.17;4.40;;;16.40;99.90;;;;;;4970290;28;20205;-60
2023/07/07 04:57:20;;;;;;;5.17;4.27;;;16.50;99.90;;;;;;4963191;28;20504;-60
2023/07/07 04:59:48;;;;;;;5.30;4.23;;;16.50;99.90;;;;;;4968827;28;20211;-60
2023/07/07 05:02:15;;;;;;;6.80;4.73;;;16.60;99.90;;;;;;4961902;28;20210;-60
2023/07/07 05:04:42;;;;;;;7.13;4.30;;;16.60;99.90;;;;;;4962743;28;20247;-60
2023/07/07 05:07:09;;;;;;;6.27;4.70;;;16.70;99.90;;;;;;4965075;28;20578;-61
2023/07/07 05:09:36;;;;;;;6.40;4.77;;;16.80;99.90;;;;;;4969447;28;20205;-60
2023/07/07 05:12:10;;;;;;;6.43;4.67;;;16.90;99.90;;;;;;4971216;28;20237;-60
2023/07/07 05:14:37;;;;;;;9.57;4.70;;;17.00;99.90;;;;;;4967661;28;20680;-61
2023/07/07 05:17:05;;;;;;;5.03;4.20;;;17.10;99.90;;;;;;4968083;28;20341;-60
2023/07/07 05:19:37;;;;;;;7.27;4.40;;;17.20;99.90;;;;;;4969676;28;20198;-61
2023/07/07 05:22:04;;;;;;;8.27;4.53;;;17.20;99.90;;;;;;4949177;28;20295;-60
2023/07/07 05:24:33;;;;;;;8.63;4.43;;;17.20;99.90;;;;;;4967011;28;20657;-61
2023/07/07 05:27:00;;;;;;;6.20;4.47;;;17.40;99.90;;;;;;4970749;28;20223;-60
2023/07/07 05:29:27;;;;;;;5.97;4.33;;;17.40;99.90;;;;;;4983102;28;20233;-60
2023/07/07 05:31:54;;;;;;;5.67;4.37;;;17.60;99.90;;;;;;4963992;28;20214;-61
2023/07/07 05:34:21;;;;;;;5.37;4.17;;;17.70;99.90;;;;;;4982687;28;20206;-60
2023/07/07 05:36:48;;;;;;;6.73;4.23;;;17.70;99.90;;;;;;4966577;28;20205;-61
2023/07/07 05:39:16;;;;;;;7.67;4.03;;;17.90;99.90;;;;;;4967359;28;20209;-61
2023/07/07 05:41:43;;;;;;;5.13;4.00;;;18.00;99.90;;;;;;4980809;28;20206;-61
2023/07/07 05:44:10;;;;;;;8.23;4.20;;;18.10;99.90;;;;;;4966710;28;20222;-62
2023/07/07 05:46:37;;;;;;;8.30;4.50;;;18.20;99.90;;;;;;4967694;28;20207;-60
2023/07/07 05:49:04;;;;;;;8.47;4.40;;;18.40;99.90;;;;;;4967181;28;20776;-62
2023/07/07 05:51:32;;;;;;;7.77;3.80;;;18.40;99.90;;;;;;4968155;28;20205;-61
2023/07/07 05:53:59;;;;;;;5.93;4.07;;;18.50;99.90;;;;;;4968370;28;20222;-61
2023/07/07 05:56:30;;;;;;;5.47;4.10;;;18.50;99.90;;;;;;4978544;28;20265;-61
2023/07/07 05:58:57;;;;;;;5.27;4.03;;;18.50;99.90;;;;;;4984677;28;20204;-62
2023/07/07 06:01:28;;;;;;;4.53;3.40;;;18.60;99.90;;;;;;4961973;28;20262;-61
2023/07/07 06:03:55;;;;;;;6.43;3.77;;;18.60;99.90;;;;;;4965673;28;20277;-61
2023/07/07 06:06:25;;;;;;;4.93;3.50;;;18.60;99.90;;;;;;4958308;28;20211;-62
2023/07/07 06:08:55;;;;;;;5.70;3.90;;;18.70;99.90;;;;;;4983398;28;21000;-61
2023/07/07 06:11:22;;;;;;;4.97;3.83;;;18.60;99.90;;;;;;4967166;28;20222;-62
2023/07/07 06:13:49;;;;;;;5.70;3.67;;;18.70;99.90;;;;;;4964430;28;20230;-62
2023/07/07 06:16:18;;;;;;;4.13;3.27;;;18.80;99.90;;;;;;4962496;28;20238;-61
2023/07/07 06:18:45;;;;;;;4.40;3.27;;;18.90;99.90;;;;;;4967383;28;20674;-61
2023/07/07 06:21:12;;;;;;;8.67;4.23;;;19.00;99.90;;;;;;4961576;28;20489;-60
2023/07/07 06:23:40;;;;;;;4.47;3.77;;;19.10;99.90;;;;;;4961608;28;21523;-61
2023/07/07 06:26:07;;;;;;;4.03;3.10;;;19.10;99.90;;;;;;4959357;28;20219;-59
2023/07/07 06:28:33;;;;;;;4.60;2.97;;;19.20;99.90;;;;;;4961956;28;20245;-59
2023/07/07 06:31:00;;;;;;;5.83;3.03;;;19.30;99.90;;;;;;4972010;28;20304;-60
2023/07/07 06:33:28;;;;;;;4.33;3.20;;;19.40;99.90;;;;;;4607829;28;10000246;-59
2023/07/07 06:35:55;;;;;;;4.57;2.93;;;19.50;99.90;;;;;;4959040;28;20206;-59
2023/07/07 06:38:22;;;;;;;4.47;3.43;;;19.60;99.90;;;;;;4965896;28;20213;-62
2023/07/07 06:40:49;;;;;;;4.93;3.30;;;19.80;99.90;;;;;;4967608;28;20209;-59
2023/07/07 06:43:18;;;;;;;6.87;3.40;;;19.90;99.90;;;;;;4963573;28;20284;-59
2023/07/07 06:45:48;;;;;;;5.53;3.20;;;20.10;99.90;;;;;;4967359;28;20662;-62
2023/07/07 06:48:15;;;;;;;5.90;3.30;;;20.20;99.90;;;;;;4965335;28;22657;-59
2023/07/07 06:50:43;;;;;;;5.73;3.00;;;20.30;99.90;;;;;;4965542;28;20214;-60
2023/07/07 06:53:10;;;;;;;5.50;3.50;;;20.50;99.90;;;;;;4966093;28;20214;-57
2023/07/07 06:55:38;;;;;;;4.97;3.40;;;20.60;99.90;;;;;;4968416;28;20237;-57
2023/07/07 06:58:04;;;;;;;7.07;3.03;;;20.80;99.90;;;;;;4964456;28;20222;-60
2023/07/07 07:00:32;;;;;;;4.67;2.83;;;21.00;99.90;;;;;;4967374;28;20249;-57
2023/07/07 07:02:59;;;;;;;5.60;3.07;;;21.10;99.90;;;;;;4961080;28;20206;-59
2023/07/07 07:05:26;;;;;;;5.10;3.13;;;21.30;99.90;;;;;;4966432;28;20292;-58
2023/07/07 07:07:52;;;;;;;6.17;2.73;;;21.50;99.90;;;;;;4962524;28;20639;-57
2023/07/07 07:10:19;;;;;;;6.33;3.20;;;21.80;99.90;;;;;;4962392;28;20206;-61
2023/07/07 07:12:48;;;;;;;4.90;2.90;;;21.90;99.90;;;;;;4959372;28;20626;-59
2023/07/07 07:15:15;;;;;;;6.87;3.00;;;22.00;99.90;;;;;;4962764;28;20214;-60
2023/07/07 07:17:42;;;;;;;3.97;2.60;;;22.00;99.90;;;;;;4971152;28;20544;-57
2023/07/07 07:20:11;;;;;;;5.37;2.93;;;22.10;99.90;;;;;;4983325;28;20335;-60
2023/07/07 07:22:38;;;;;;;5.23;2.90;;;22.40;99.90;;;;;;4966698;28;20985;-57
2023/07/07 07:25:05;;;;;;;5.77;2.73;;;22.50;99.90;;;;;;4962668;28;20566;-58
2023/07/07 07:27:32;;;;;;;5.33;3.10;;;22.50;99.90;;;;;;4970907;28;20229;-58
2023/07/07 07:29:59;;;;;;;5.27;2.50;;;22.70;99.90;;;;;;4967047;28;20202;-58
2023/07/07 07:32:26;;;;;;;3.97;2.57;;;22.70;99.90;;;;;;4965974;28;20266;-60
2023/07/07 07:34:53;;;;;;;4.60;3.30;;;23.00;99.90;;;;;;4967246;28;20641;-58
2023/07/07 07:37:20;;;;;;;3.53;2.47;;;23.10;99.90;;;;;;4966862;28;20207;-57
2023/07/07 07:39:47;;;;;;;3.60;2.63;;;23.40;99.90;;;;;;4969181;28;20757;-59
2023/07/07 07:42:13;;;;;;;5.10;2.50;;;23.20;99.90;;;;;;4968214;28;20654;-61
2023/07/07 07:44:40;;;;;;;3.27;2.30;;;23.50;99.90;;;;;;4960156;28;20667;-57
2023/07/07 07:47:08;;;;;;;5.30;2.67;;;23.70;99.90;;;;;;4962374;28;20202;-60
2023/07/07 07:49:36;;;;;;;4.43;2.70;;;23.80;99.90;;;;;;4965502;28;20560;-59
2023/07/07 07:52:03;;;;;;;4.13;2.80;;;24.00;99.90;;;;;;4977592;28;20261;-62
2023/07/07 07:54:30;;;;;;;3.77;2.67;;;24.40;99.90;;;;;;4962731;28;20248;-60
2023/07/07 07:56:57;;;;;;;3.77;2.17;;;24.40;99.90;;;;;;4972861;28;20600;-58
2023/07/07 07:59:24;;;;;;;4.87;2.37;;;24.30;99.90;;;;;;4968150;28;20219;-60
2023/07/07 08:01:51;;;;;;;7.03;2.97;;;24.80;99.90;;;;;;4975366;28;20203;-58
2023/07/07 08:04:18;;;;;;;4.40;2.90;;;24.80;99.90;;;;;;4964031;28;20246;-59
2023/07/07 08:06:45;;;;;;;4.87;2.50;;;24.80;99.90;;;;;;4967695;28;20259;-57
2023/07/07 08:09:12;;;;;;;5.15;2.78;;;24.50;99.90;;;;;;4974392;28;20819;-57
2023/07/07 08:11:42;;;;;;;6.10;2.70;;;25.50;99.90;;;;;;4973187;28;20260;-58
2023/07/07 08:14:20;;;;;;;3.27;1.90;;;26.40;99.90;;;;;;4974911;28;20670;-57
2023/07/07 08:16:48;;;;;;;4.03;2.17;;;26.70;99.90;;;;;;4974816;28;20210;-57
2023/07/07 08:19:15;;;;;;;3.00;1.93;;;26.70;99.90;;;;;;4962733;28;20285;-59
2023/07/07 08:21:46;;;;;;;3.07;2.20;;;27.70;99.90;;;;;;4970848;28;20202;-58
2023/07/07 08:24:13;;;;;;;3.13;1.80;;;28.00;99.90;;;;;;4971271;28;20216;-57
2023/07/07 08:26:40;;;;;;;4.43;2.03;;;27.70;99.90;;;;;;4992300;28;20202;-58
2023/07/07 08:29:09;;;;;;;3.90;2.22;;;27.70;99.90;;;;;;4971442;28;20353;-58
2023/07/07 08:31:49;;;;;;;5.10;1.90;;;28.40;99.90;;;;;;4976694;28;20563;-57
2023/07/07 08:34:16;;;;;;;4.07;2.05;;;28.90;99.90;;;;;;4969767;28;20567;-58
2023/07/07 08:36:43;;;;;;;2.75;1.88;;;29.50;99.90;;;;;;4966150;28;20583;-57
2023/07/07 08:39:21;;;;;;;2.85;2.20;;;29.90;99.90;;;;;;4976235;28;20654;-58
2023/07/07 08:42:00;;;;;;;3.65;1.90;;;28.90;99.90;;;;;;4963014;28;20202;-58
2023/07/07 08:44:30;;;;;;;2.73;1.80;;;28.60;99.90;;;;;;4972680;28;20209;-58
2023/07/07 08:47:12;;;;;;;3.40;1.70;;;29.00;99.90;;;;;;4965554;28;20886;-61
2023/07/07 08:50:16;;;;;;;2.83;2.10;;;29.60;99.90;;;;;;4962885;28;20353;-60
2023/07/07 08:53:30;;;;;;;3.23;2.00;;;29.40;99.90;;;;;;4957148;28;20235;-59
2023/07/07 08:56:12;;;;;;;4.47;2.33;;;29.40;99.90;;;;;;4969529;28;20213;-60
2023/07/07 08:58:42;;;;;;;3.00;1.88;;;29.20;99.90;;;;;;4959415;28;20221;-60
2023/07/07 09:01:40;;;;;;;1.90;1.40;;;29.20;99.90;;;;;;4965399;28;20207;-61
2023/07/07 09:04:25;;;;;;;3.33;1.77;;;29.40;99.90;;;;;;4958069;28;20250;-60
2023/07/07 09:07:03;;;;;;;2.22;1.70;;;30.00;99.90;;;;;;4954121;28;20284;-61
2023/07/07 09:09:48;;;;;;;6.70;2.67;;;29.80;99.90;;;;;;4948117;28;20217;-60
2023/07/07 09:12:30;;;;;;;3.00;1.73;;;29.20;99.90;;;;;;4962773;28;20649;-60
2023/07/07 09:14:59;;;;;;;3.08;2.08;;;29.30;99.90;;;;;;4972961;28;20281;-58
2023/07/07 09:17:37;;;;;;;3.30;1.98;;;29.60;99.90;;;;;;4970357;28;20206;-58
2023/07/07 09:20:08;;;;;;;2.95;1.80;;;29.50;99.90;;;;;;4971242;28;20228;-59
2023/07/07 09:22:53;;;;;;;3.83;2.67;;;30.40;99.90;;;;;;4970529;28;20194;-60
2023/07/07 09:25:25;;;;;;;3.45;1.95;;;30.10;99.90;;;;;;4983314;28;20256;-59
2023/07/07 09:28:13;;;;;;;4.68;1.55;;;29.00;99.90;;;;;;4983033;28;20574;-59
2023/07/07 09:30:47;;;;;;;2.35;1.60;;;29.00;99.90;;;;;;4970761;28;20233;-58
2023/07/07 09:33:18;;;;;;;2.60;1.70;;;29.10;99.90;;;;;;4968909;28;20358;-61
2023/07/07 09:35:57;;;;;;;4.82;2.03;;;29.40;99.90;;;;;;4972241;28;20298;-58
2023/07/07 09:38:45;;;;;;;2.78;1.60;;;29.30;99.90;;;;;;4971936;28;20204;-58
2023/07/07 09:41:20;;;;;;;2.70;1.65;;;28.90;99.90;;;;;;4971700;28;20213;-58
2023/07/07 09:44:02;;;;;;;2.20;1.52;;;29.10;99.90;;;;;;4969620;28;20202;-57
2023/07/07 09:46:40;;;;;;;2.80;1.73;;;29.30;99.90;;;;;;4972759;28;20838;-60
2023/07/07 09:49:32;;;;;;;3.58;1.92;;;29.60;99.90;;;;;;4970935;28;20260;-58
2023/07/07 09:52:19;;;;;;;2.17;1.55;;;29.10;99.90;;;;;;4972155;28;20224;-58
2023/07/07 09:54:47;;;;;;;3.90;1.55;;;29.30;99.90;;;;;;4970473;28;20755;-59
2023/07/07 09:57:43;;;;;;;3.33;1.67;;;28.80;99.90;;;;;;4967420;28;20203;-59
2023/07/07 10:00:16;;;;;;;3.55;1.80;;;28.70;99.90;;;;;;4968581;28;20229;-58
2023/07/07 10:05:57;;;;;;;3.13;1.80;;;28.30;99.90;;;;;;4972028;28;20242;-64
2023/07/07 10:08:26;;;;;;;2.63;1.45;;;27.80;99.90;;;;;;4963506;28;20246;-59
2023/07/07 10:11:15;;;;;;;3.72;2.15;;;28.50;99.90;;;;;;4972901;28;20228;-59
2023/07/07 10:14:05;;;;;;;2.03;1.70;;;28.40;99.90;;;;;;4967133;28;20293;-59
2023/07/07 10:16:35;;;;;;;4.10;1.50;;;28.60;99.90;;;;;;4974739;28;20211;-56
2023/07/07 10:19:07;;;;;;;3.78;1.65;;;28.50;99.90;;;;;;4976592;28;20898;-57
2023/07/07 10:21:35;;;;;;;4.20;1.67;;;28.40;99.90;;;;;;4972087;28;20210;-59
2023/07/07 10:24:02;;;;;;;3.13;1.73;;;27.90;99.90;;;;;;4973879;28;20206;-58
2023/07/07 10:26:32;;;;;;;4.50;1.98;;;28.10;99.90;;;;;;4976726;28;20202;-61
2023/07/07 10:29:02;;;;;;;6.30;2.10;;;28.10;99.90;;;;;;4981268;28;20653;-60
2023/07/07 10:31:29;;;;;;;2.88;1.98;;;28.10;99.90;;;;;;4977915;28;20217;-60
2023/07/07 10:33:59;;;;;;;3.17;1.67;;;28.30;99.90;;;;;;4972649;28;20229;-59
2023/07/07 10:36:30;;;;;;;2.85;1.90;;;28.70;99.90;;;;;;4976167;28;20209;-59
2023/07/07 10:38:58;;;;;;;3.35;1.95;;;28.20;99.90;;;;;;4976961;28;20208;-59
2023/07/07 10:41:26;;;;;;;4.22;2.08;;;28.40;99.90;;;;;;4971374;28;20237;-60
2023/07/07 10:43:54;;;;;;;2.50;2.05;;;28.60;99.90;;;;;;4974111;28;20206;-60
2023/07/07 10:46:21;;;;;;;2.83;2.03;;;28.80;99.90;;;;;;4975370;28;20198;-62
2023/07/07 10:48:51;;;;;;;3.10;2.22;;;28.90;99.90;;;;;;4965698;28;20226;-60
2023/07/07 10:51:49;;;;;;;3.08;1.88;;;28.50;99.90;;;;;;4974873;28;20191;-60
2023/07/07 10:54:25;;;;;;;5.18;2.03;;;28.40;99.90;;;;;;4964551;28;20210;-61
2023/07/07 10:57:09;;;;;;;3.45;1.95;;;28.50;99.90;;;;;;4973255;28;20203;-60
2023/07/07 11:00:13;;;;;;;2.47;1.77;;;28.90;99.90;;;;;;4974619;28;20205;-58
2023/07/07 11:03:01;;;;;;;2.10;1.77;;;29.20;99.90;;;;;;4973059;28;20206;-58
2023/07/07 11:05:44;;;;;;;4.68;1.85;;;29.50;99.90;;;;;;4976758;28;20230;-59
2023/07/07 11:08:57;;;;;;;2.75;1.80;;;29.20;99.90;;;;;;4982242;28;20210;-60
2023/07/07 11:11:48;;;;;;;2.33;1.80;;;30.30;99.90;;;;;;4980213;28;20724;-59
2023/07/07 11:14:33;;;;;;;2.85;1.75;;;30.00;99.90;;;;;;4978905;28;20549;-59
2023/07/07 11:17:07;;;;;;;2.70;1.67;;;30.00;99.90;;;;;;4981479;28;20206;-60
2023/07/07 11:20:12;;;;;;;2.35;1.85;;;30.00;99.90;;;;;;4970690;28;20193;-61
2023/07/07 11:23:07;;;;;;;2.88;1.92;;;30.70;99.90;;;;;;4979595;28;20293;-60
2023/07/07 11:26:03;;;;;;;3.80;2.25;;;30.20;99.90;;;;;;4980632;28;20233;-59
2023/07/07 11:28:43;;;;;;;4.97;2.30;;;31.90;99.90;;;;;;4976293;28;20206;-63
2023/07/07 11:31:19;;;;;;;4.38;2.10;;;31.40;99.90;;;;;;4981223;28;20693;-61
2023/07/07 11:34:06;;;;;;;4.00;1.95;;;30.20;99.90;;;;;;4979791;28;20769;-56
2023/07/07 11:37:03;;;;;;;4.75;1.90;;;30.90;99.90;;;;;;4979422;28;20242;-57
2023/07/07 11:39:53;;;;;;;2.17;1.60;;;30.10;99.90;;;;;;4979191;28;20205;-59
2023/07/07 11:42:43;;;;;;;2.28;1.85;;;29.10;99.90;;;;;;4972296;28;20198;-62
2023/07/07 11:45:23;;;;;;;3.50;2.20;;;29.80;99.90;;;;;;4970925;28;20563;-60
2023/07/07 11:48:10;;;;;;;3.45;2.42;;;30.70;99.90;;;;;;4979357;28;20592;-69
2023/07/07 11:50:41;;;;;;;3.33;2.15;;;30.90;99.90;;;;;;4972541;28;20201;-62
2023/07/07 11:53:34;;;;;;;3.30;1.73;;;30.40;99.90;;;;;;4969886;28;20634;-61
2023/07/07 11:56:38;;;;;;;2.63;2.00;;;31.10;99.90;;;;;;4977656;28;20202;-61
2023/07/07 11:59:39;;;;;;;2.40;1.95;;;30.70;99.90;;;;;;4977452;28;20688;-61
2023/07/07 12:02:41;;;;;;;4.07;2.15;;;31.60;99.90;;;;;;4981253;28;20218;-59
2023/07/07 12:05:19;;;;;;;3.05;1.95;;;32.60;99.90;;;;;;4980510;28;20252;-62
2023/07/07 12:07:55;;;;;;;4.65;1.90;;;32.60;99.90;;;;;;4980620;28;20250;-64
2023/07/07 12:10:27;;;;;;;6.53;2.42;;;32.40;99.90;;;;;;4979137;28;20218;-59
2023/07/07 12:13:10;;;;;;;2.80;2.03;;;31.20;99.90;;;;;;4978135;28;20210;-60
2023/07/07 12:15:41;;;;;;;4.07;2.30;;;30.70;99.90;;;;;;4979607;28;20211;-62
2023/07/07 12:18:26;;;;;;;3.40;1.60;;;31.00;99.90;;;;;;4978274;28;20784;-63
2023/07/07 12:21:01;;;;;;;3.33;1.67;;;31.90;99.90;;;;;;4977807;28;20229;-61
2023/07/07 12:23:31;;;;;;;4.47;1.80;;;32.10;99.90;;;;;;4976575;28;20252;-59
2023/07/07 12:26:27;;;;;;;2.65;2.15;;;31.60;99.90;;;;;;4977847;28;20202;-60
2023/07/07 12:28:59;;;;;;;2.70;1.85;;;32.60;99.90;;;;;;4965474;28;20210;-61
2023/07/07 12:31:28;;;;;;;5.88;1.90;;;31.40;99.90;;;;;;4978436;28;20207;-62
2023/07/07 12:33:55;;;;;;;3.78;1.88;;;32.20;99.90;;;;;;4974386;28;20225;-61
2023/07/07 12:36:28;;;;;;;3.20;2.17;;;33.20;99.90;;;;;;4979224;28;20202;-59
2023/07/07 12:39:00;;;;;;;2.90;1.90;;;32.50;99.90;;;;;;4978690;28;20209;-61
2023/07/07 12:41:29;;;;;;;4.85;2.25;;;32.10;99.90;;;;;;4980198;28;20211;-60
2023/07/07 12:43:59;;;;;;;5.30;1.80;;;32.10;99.90;;;;;;4977821;28;20206;-59
2023/07/07 12:46:29;;;;;;;7.13;2.20;;;32.10;99.90;;;;;;4977945;28;20653;-57
2023/07/07 12:48:58;;;;;;;3.10;1.60;;;31.90;99.90;;;;;;4991188;28;20206;-59
2023/07/07 12:51:31;;;;;;;3.55;2.17;;;32.80;99.90;;;;;;4970859;28;20316;-59
2023/07/07 12:53:58;;;;;;;3.70;2.03;;;32.30;99.90;;;;;;4978815;28;20217;-58
2023/07/07 12:56:28;;;;;;;3.60;2.10;;;32.20;99.90;;;;;;4977564;28;20229;-58
2023/07/07 12:58:59;;;;;;;4.95;1.65;;;32.30;99.90;;;;;;4987496;28;20276;-57
2023/07/07 13:01:38;;;;;;;2.85;2.00;;;32.60;99.90;;;;;;4978494;28;20218;-60
2023/07/07 13:04:07;;;;;;;3.50;2.08;;;31.90;99.90;;;;;;4976348;28;20700;-58
2023/07/07 13:07:01;;;;;;;4.50;1.95;;;31.30;99.90;;;;;;4975788;28;20745;-57
2023/07/07 13:09:46;;;;;;;2.75;2.08;;;31.50;99.90;;;;;;4979644;28;20207;-57
2023/07/07 13:12:35;;;;;;;4.15;2.15;;;31.50;99.90;;;;;;4979652;28;20234;-58
2023/07/07 13:15:07;;;;;;;2.95;1.90;;;31.60;99.90;;;;;;4977086;28;20218;-59
2023/07/07 13:17:34;;;;;;;5.15;2.00;;;31.80;99.90;;;;;;4976488;28;20206;-60
2023/07/07 13:20:04;;;;;;;4.10;1.92;;;31.70;99.90;;;;;;4979134;28;20198;-61